sensor_id;sensor_type;location;lat;lon;timestamp;P1;durP1;ratioP1;P2;durP2;ratioP2
59388;SDS011;51830;45.202;19.720;2023-02-28T00:00:51;14.27;;;5.35;;
59388;SDS011;51830;45.202;19.720;2023-02-28T00:03:18;16.58;;;6.07;;
59388;SDS011;51830;45.202;19.720;2023-02-28T00:05:44;16.48;;;5.85;;
59388;SDS011;51830;45.202;19.720;2023-02-28T00:08:10;13.85;;;5.05;;
59388;SDS011;51830;45.202;19.720;2023-02-28T00:10:36;13.30;;;4.55;;
59388;SDS011;51830;45.202;19.720;2023-02-28T00:13:04;16.45;;;6.13;;
59388;SDS011;51830;45.202;19.720;2023-02-28T00:15:30;15.60;;;6.25;;
59388;SDS011;51830;45.202;19.720;2023-02-28T00:17:56;14.55;;;5.15;;
59388;SDS011;51830;45.202;19.720;2023-02-28T00:20:23;16.38;;;5.03;;
59388;SDS011;51830;45.202;19.720;2023-02-28T00:22:50;11.88;;;4.93;;
59388;SDS011;51830;45.202;19.720;2023-02-28T00:25:18;12.73;;;4.53;;
59388;SDS011;51830;45.202;19.720;2023-02-28T00:27:45;11.48;;;4.47;;
59388;SDS011;51830;45.202;19.720;2023-02-28T00:30:15;13.48;;;5.10;;
59388;SDS011;51830;45.202;19.720;2023-02-28T00:32:42;13.65;;;4.88;;
59388;SDS011;51830;45.202;19.720;2023-02-28T00:35:08;11.35;;;4.32;;
59388;SDS011;51830;45.202;19.720;2023-02-28T00:37:35;14.88;;;4.45;;
59388;SDS011;51830;45.202;19.720;2023-02-28T00:40:01;14.52;;;5.20;;
59388;SDS011;51830;45.202;19.720;2023-02-28T00:42:30;14.43;;;5.28;;
59388;SDS011;51830;45.202;19.720;2023-02-28T00:44:56;14.02;;;4.35;;
59388;SDS011;51830;45.202;19.720;2023-02-28T00:47:22;15.52;;;5.60;;
59388;SDS011;51830;45.202;19.720;2023-02-28T00:49:48;14.85;;;4.63;;
59388;SDS011;51830;45.202;19.720;2023-02-28T00:52:14;16.90;;;4.80;;
59388;SDS011;51830;45.202;19.720;2023-02-28T00:54:40;14.93;;;5.60;;
59388;SDS011;51830;45.202;19.720;2023-02-28T00:57:07;17.08;;;6.18;;
59388;SDS011;51830;45.202;19.720;2023-02-28T00:59:33;16.33;;;5.00;;
59388;SDS011;51830;45.202;19.720;2023-02-28T01:01:59;12.18;;;4.43;;
59388;SDS011;51830;45.202;19.720;2023-02-28T01:04:25;14.80;;;5.07;;
59388;SDS011;51830;45.202;19.720;2023-02-28T01:06:51;14.68;;;4.65;;
59388;SDS011;51830;45.202;19.720;2023-02-28T01:09:17;12.95;;;5.15;;
59388;SDS011;51830;45.202;19.720;2023-02-28T01:11:43;17.38;;;4.60;;
59388;SDS011;51830;45.202;19.720;2023-02-28T01:14:13;13.25;;;4.63;;
59388;SDS011;51830;45.202;19.720;2023-02-28T01:16:40;17.70;;;5.22;;
59388;SDS011;51830;45.202;19.720;2023-02-28T01:19:06;16.88;;;5.28;;
59388;SDS011;51830;45.202;19.720;2023-02-28T01:21:32;13.85;;;4.65;;
59388;SDS011;51830;45.202;19.720;2023-02-28T01:24:00;12.13;;;4.28;;
59388;SDS011;51830;45.202;19.720;2023-02-28T01:26:26;13.75;;;5.10;;
59388;SDS011;51830;45.202;19.720;2023-02-28T01:28:53;13.60;;;4.68;;
59388;SDS011;51830;45.202;19.720;2023-02-28T01:31:19;14.52;;;4.70;;
59388;SDS011;51830;45.202;19.720;2023-02-28T01:33:46;12.02;;;4.25;;
59388;SDS011;51830;45.202;19.720;2023-02-28T01:36:16;13.77;;;4.65;;
59388;SDS011;51830;45.202;19.720;2023-02-28T01:38:43;16.15;;;5.47;;
59388;SDS011;51830;45.202;19.720;2023-02-28T01:41:10;15.02;;;5.13;;
59388;SDS011;51830;45.202;19.720;2023-02-28T01:46:09;12.13;;;4.55;;
59388;SDS011;51830;45.202;19.720;2023-02-28T01:48:37;11.65;;;4.60;;
59388;SDS011;51830;45.202;19.720;2023-02-28T01:51:05;14.18;;;4.50;;
59388;SDS011;51830;45.202;19.720;2023-02-28T01:53:34;13.98;;;4.28;;
59388;SDS011;51830;45.202;19.720;2023-02-28T01:56:02;14.73;;;4.28;;
59388;SDS011;51830;45.202;19.720;2023-02-28T01:58:30;15.00;;;5.15;;
59388;SDS011;51830;45.202;19.720;2023-02-28T02:00:56;12.38;;;3.67;;
59388;SDS011;51830;45.202;19.720;2023-02-28T02:03:22;12.27;;;4.85;;
59388;SDS011;51830;45.202;19.720;2023-02-28T02:05:49;14.68;;;5.03;;
59388;SDS011;51830;45.202;19.720;2023-02-28T02:08:22;16.48;;;5.30;;
59388;SDS011;51830;45.202;19.720;2023-02-28T02:10:54;13.05;;;4.75;;
59388;SDS011;51830;45.202;19.720;2023-02-28T02:16:11;12.32;;;4.32;;
59388;SDS011;51830;45.202;19.720;2023-02-28T02:18:43;14.27;;;4.50;;
59388;SDS011;51830;45.202;19.720;2023-02-28T02:39:21;18.95;;;6.28;;
59388;SDS011;51830;45.202;19.720;2023-02-28T02:41:52;13.88;;;5.32;;
59388;SDS011;51830;45.202;19.720;2023-02-28T02:44:23;15.40;;;4.85;;
59388;SDS011;51830;45.202;19.720;2023-02-28T02:46:51;20.83;;;5.30;;
59388;SDS011;51830;45.202;19.720;2023-02-28T02:49:24;20.23;;;5.63;;
59388;SDS011;51830;45.202;19.720;2023-02-28T02:51:51;13.50;;;4.53;;
59388;SDS011;51830;45.202;19.720;2023-02-28T02:54:21;15.30;;;5.47;;
59388;SDS011;51830;45.202;19.720;2023-02-28T02:56:48;13.88;;;5.63;;
59388;SDS011;51830;45.202;19.720;2023-02-28T02:59:16;8.57;;;3.45;;
59388;SDS011;51830;45.202;19.720;2023-02-28T03:01:49;15.20;;;4.80;;
59388;SDS011;51830;45.202;19.720;2023-02-28T03:04:16;14.50;;;5.15;;
59388;SDS011;51830;45.202;19.720;2023-02-28T03:06:44;11.95;;;4.03;;
59388;SDS011;51830;45.202;19.720;2023-02-28T03:09:10;13.95;;;4.68;;
59388;SDS011;51830;45.202;19.720;2023-02-28T03:11:37;10.65;;;3.78;;
59388;SDS011;51830;45.202;19.720;2023-02-28T03:14:07;14.57;;;5.10;;
59388;SDS011;51830;45.202;19.720;2023-02-28T03:26:52;19.25;;;6.35;;
59388;SDS011;51830;45.202;19.720;2023-02-28T03:32:19;11.98;;;4.53;;
59388;SDS011;51830;45.202;19.720;2023-02-28T03:35:08;9.98;;;3.60;;
59388;SDS011;51830;45.202;19.720;2023-02-28T03:37:36;17.25;;;5.90;;
59388;SDS011;51830;45.202;19.720;2023-02-28T03:40:08;14.90;;;5.55;;
59388;SDS011;51830;45.202;19.720;2023-02-28T03:42:38;13.90;;;4.38;;
59388;SDS011;51830;45.202;19.720;2023-02-28T03:45:09;15.38;;;5.88;;
59388;SDS011;51830;45.202;19.720;2023-02-28T03:47:53;16.13;;;5.93;;
59388;SDS011;51830;45.202;19.720;2023-02-28T03:52:50;18.30;;;5.65;;
59388;SDS011;51830;45.202;19.720;2023-02-28T03:55:17;13.20;;;6.15;;
59388;SDS011;51830;45.202;19.720;2023-02-28T03:57:48;15.50;;;5.05;;
59388;SDS011;51830;45.202;19.720;2023-02-28T04:02:43;22.02;;;7.07;;
59388;SDS011;51830;45.202;19.720;2023-02-28T04:05:09;17.15;;;5.55;;
59388;SDS011;51830;45.202;19.720;2023-02-28T04:07:36;14.98;;;6.75;;
59388;SDS011;51830;45.202;19.720;2023-02-28T04:10:02;17.38;;;5.43;;
59388;SDS011;51830;45.202;19.720;2023-02-28T04:12:29;18.75;;;6.50;;
59388;SDS011;51830;45.202;19.720;2023-02-28T04:14:55;20.02;;;6.47;;
59388;SDS011;51830;45.202;19.720;2023-02-28T04:17:21;14.93;;;6.22;;
59388;SDS011;51830;45.202;19.720;2023-02-28T04:19:48;16.33;;;5.15;;
59388;SDS011;51830;45.202;19.720;2023-02-28T04:22:15;14.48;;;4.93;;
59388;SDS011;51830;45.202;19.720;2023-02-28T04:24:42;15.30;;;5.28;;
59388;SDS011;51830;45.202;19.720;2023-02-28T04:27:09;12.68;;;4.18;;
59388;SDS011;51830;45.202;19.720;2023-02-28T04:29:35;12.90;;;4.97;;
59388;SDS011;51830;45.202;19.720;2023-02-28T04:32:02;11.55;;;3.78;;
59388;SDS011;51830;45.202;19.720;2023-02-28T04:34:29;11.48;;;4.03;;
59388;SDS011;51830;45.202;19.720;2023-02-28T04:36:56;11.93;;;3.97;;
59388;SDS011;51830;45.202;19.720;2023-02-28T04:39:22;11.68;;;4.65;;
59388;SDS011;51830;45.202;19.720;2023-02-28T04:41:49;13.57;;;4.40;;
59388;SDS011;51830;45.202;19.720;2023-02-28T04:44:16;12.07;;;3.53;;
59388;SDS011;51830;45.202;19.720;2023-02-28T04:46:43;13.15;;;4.40;;
59388;SDS011;51830;45.202;19.720;2023-02-28T04:49:12;6.72;;;2.83;;
59388;SDS011;51830;45.202;19.720;2023-02-28T04:51:38;12.55;;;3.85;;
59388;SDS011;51830;45.202;19.720;2023-02-28T04:54:05;12.35;;;4.18;;
59388;SDS011;51830;45.202;19.720;2023-02-28T04:56:31;9.27;;;3.33;;
59388;SDS011;51830;45.202;19.720;2023-02-28T04:58:58;16.58;;;4.97;;
59388;SDS011;51830;45.202;19.720;2023-02-28T05:01:25;11.38;;;3.90;;
59388;SDS011;51830;45.202;19.720;2023-02-28T05:03:53;15.45;;;5.82;;
59388;SDS011;51830;45.202;19.720;2023-02-28T05:06:20;10.45;;;3.40;;
59388;SDS011;51830;45.202;19.720;2023-02-28T05:08:46;12.38;;;4.68;;
59388;SDS011;51830;45.202;19.720;2023-02-28T05:11:14;13.40;;;4.18;;
59388;SDS011;51830;45.202;19.720;2023-02-28T05:13:41;12.20;;;4.50;;
59388;SDS011;51830;45.202;19.720;2023-02-28T05:16:07;14.60;;;4.65;;
59388;SDS011;51830;45.202;19.720;2023-02-28T05:18:33;11.40;;;4.00;;
59388;SDS011;51830;45.202;19.720;2023-02-28T05:20:59;11.27;;;3.90;;
59388;SDS011;51830;45.202;19.720;2023-02-28T05:23:29;10.13;;;3.72;;
59388;SDS011;51830;45.202;19.720;2023-02-28T05:25:55;10.70;;;3.83;;
59388;SDS011;51830;45.202;19.720;2023-02-28T05:28:22;14.52;;;5.35;;
59388;SDS011;51830;45.202;19.720;2023-02-28T05:30:48;9.38;;;3.22;;
59388;SDS011;51830;45.202;19.720;2023-02-28T05:33:15;15.27;;;4.82;;
59388;SDS011;51830;45.202;19.720;2023-02-28T05:35:41;10.45;;;3.45;;
59388;SDS011;51830;45.202;19.720;2023-02-28T05:38:08;12.80;;;4.28;;
59388;SDS011;51830;45.202;19.720;2023-02-28T05:40:34;16.90;;;4.28;;
59388;SDS011;51830;45.202;19.720;2023-02-28T05:43:01;10.95;;;3.45;;
59388;SDS011;51830;45.202;19.720;2023-02-28T05:45:27;11.82;;;3.78;;
59388;SDS011;51830;45.202;19.720;2023-02-28T05:47:53;13.38;;;4.43;;
59388;SDS011;51830;45.202;19.720;2023-02-28T05:50:20;16.67;;;4.90;;
59388;SDS011;51830;45.202;19.720;2023-02-28T05:52:49;12.65;;;4.97;;
59388;SDS011;51830;45.202;19.720;2023-02-28T05:55:16;10.27;;;3.88;;
59388;SDS011;51830;45.202;19.720;2023-02-28T05:57:42;11.75;;;4.07;;
59388;SDS011;51830;45.202;19.720;2023-02-28T06:00:09;15.43;;;4.78;;
59388;SDS011;51830;45.202;19.720;2023-02-28T06:02:35;12.13;;;3.85;;
59388;SDS011;51830;45.202;19.720;2023-02-28T06:05:02;12.68;;;4.68;;
59388;SDS011;51830;45.202;19.720;2023-02-28T06:07:28;11.60;;;3.40;;
59388;SDS011;51830;45.202;19.720;2023-02-28T06:09:54;15.32;;;4.93;;
59388;SDS011;51830;45.202;19.720;2023-02-28T06:12:20;10.90;;;4.25;;
59388;SDS011;51830;45.202;19.720;2023-02-28T06:14:47;15.13;;;4.40;;
59388;SDS011;51830;45.202;19.720;2023-02-28T06:17:13;16.60;;;5.20;;
59388;SDS011;51830;45.202;19.720;2023-02-28T06:19:39;12.85;;;5.13;;
59388;SDS011;51830;45.202;19.720;2023-02-28T06:22:06;10.98;;;3.78;;
59388;SDS011;51830;45.202;19.720;2023-02-28T06:24:33;11.13;;;4.68;;
59388;SDS011;51830;45.202;19.720;2023-02-28T06:27:12;13.27;;;4.95;;
59388;SDS011;51830;45.202;19.720;2023-02-28T06:29:40;13.45;;;4.55;;
59388;SDS011;51830;45.202;19.720;2023-02-28T06:32:12;11.05;;;3.08;;
59388;SDS011;51830;45.202;19.720;2023-02-28T06:34:49;12.50;;;4.22;;
59388;SDS011;51830;45.202;19.720;2023-02-28T06:37:16;12.93;;;3.90;;
59388;SDS011;51830;45.202;19.720;2023-02-28T06:39:42;11.88;;;4.22;;
59388;SDS011;51830;45.202;19.720;2023-02-28T06:42:08;15.55;;;5.22;;
59388;SDS011;51830;45.202;19.720;2023-02-28T06:44:34;14.93;;;4.65;;
59388;SDS011;51830;45.202;19.720;2023-02-28T06:47:01;12.07;;;3.92;;
59388;SDS011;51830;45.202;19.720;2023-02-28T06:49:31;12.02;;;4.22;;
59388;SDS011;51830;45.202;19.720;2023-02-28T06:51:58;12.60;;;3.95;;
59388;SDS011;51830;45.202;19.720;2023-02-28T06:54:24;12.48;;;4.85;;
59388;SDS011;51830;45.202;19.720;2023-02-28T06:56:51;14.77;;;5.13;;
59388;SDS011;51830;45.202;19.720;2023-02-28T06:59:19;13.57;;;5.20;;
59388;SDS011;51830;45.202;19.720;2023-02-28T07:01:45;14.30;;;4.10;;
59388;SDS011;51830;45.202;19.720;2023-02-28T07:04:12;15.43;;;5.65;;
59388;SDS011;51830;45.202;19.720;2023-02-28T07:06:38;14.23;;;5.68;;
59388;SDS011;51830;45.202;19.720;2023-02-28T07:09:05;18.75;;;5.50;;
59388;SDS011;51830;45.202;19.720;2023-02-28T07:11:31;13.85;;;4.90;;
59388;SDS011;51830;45.202;19.720;2023-02-28T07:13:57;17.17;;;5.32;;
59388;SDS011;51830;45.202;19.720;2023-02-28T07:16:24;14.48;;;4.82;;
59388;SDS011;51830;45.202;19.720;2023-02-28T07:18:53;11.77;;;4.20;;
59388;SDS011;51830;45.202;19.720;2023-02-28T07:21:20;17.40;;;6.05;;
59388;SDS011;51830;45.202;19.720;2023-02-28T07:23:47;15.25;;;5.35;;
59388;SDS011;51830;45.202;19.720;2023-02-28T07:26:16;15.40;;;4.85;;
59388;SDS011;51830;45.202;19.720;2023-02-28T07:28:44;16.70;;;5.97;;
59388;SDS011;51830;45.202;19.720;2023-02-28T07:31:11;14.95;;;4.78;;
59388;SDS011;51830;45.202;19.720;2023-02-28T07:33:39;16.98;;;5.60;;
59388;SDS011;51830;45.202;19.720;2023-02-28T07:36:13;12.73;;;4.28;;
59388;SDS011;51830;45.202;19.720;2023-02-28T07:38:41;12.02;;;4.38;;
59388;SDS011;51830;45.202;19.720;2023-02-28T07:41:08;13.05;;;4.57;;
59388;SDS011;51830;45.202;19.720;2023-02-28T07:43:35;17.38;;;6.20;;
59388;SDS011;51830;45.202;19.720;2023-02-28T07:46:05;14.70;;;5.32;;
59388;SDS011;51830;45.202;19.720;2023-02-28T07:48:31;15.80;;;5.45;;
59388;SDS011;51830;45.202;19.720;2023-02-28T07:50:58;16.17;;;5.68;;
59388;SDS011;51830;45.202;19.720;2023-02-28T07:53:25;15.27;;;5.43;;
59388;SDS011;51830;45.202;19.720;2023-02-28T07:55:58;11.90;;;4.32;;
59388;SDS011;51830;45.202;19.720;2023-02-28T08:00:51;18.88;;;6.80;;
59388;SDS011;51830;45.202;19.720;2023-02-28T08:03:18;18.23;;;7.80;;
59388;SDS011;51830;45.202;19.720;2023-02-28T08:05:44;16.60;;;5.95;;
59388;SDS011;51830;45.202;19.720;2023-02-28T08:08:11;14.00;;;4.82;;
59388;SDS011;51830;45.202;19.720;2023-02-28T08:10:37;18.17;;;6.22;;
59388;SDS011;51830;45.202;19.720;2023-02-28T08:13:03;18.67;;;5.43;;
59388;SDS011;51830;45.202;19.720;2023-02-28T08:15:30;18.08;;;7.22;;
59388;SDS011;51830;45.202;19.720;2023-02-28T08:17:56;14.60;;;5.32;;
59388;SDS011;51830;45.202;19.720;2023-02-28T08:20:23;15.05;;;5.28;;
59388;SDS011;51830;45.202;19.720;2023-02-28T08:22:49;15.57;;;5.38;;
59388;SDS011;51830;45.202;19.720;2023-02-28T08:25:16;15.02;;;5.60;;
59388;SDS011;51830;45.202;19.720;2023-02-28T08:27:42;16.27;;;5.88;;
59388;SDS011;51830;45.202;19.720;2023-02-28T08:30:12;19.50;;;5.95;;
59388;SDS011;51830;45.202;19.720;2023-02-28T08:32:38;14.75;;;5.85;;
59388;SDS011;51830;45.202;19.720;2023-02-28T08:35:05;15.77;;;5.72;;
59388;SDS011;51830;45.202;19.720;2023-02-28T08:37:31;22.15;;;7.53;;
59388;SDS011;51830;45.202;19.720;2023-02-28T08:39:57;13.68;;;5.15;;
59388;SDS011;51830;45.202;19.720;2023-02-28T08:42:24;20.13;;;7.00;;
59388;SDS011;51830;45.202;19.720;2023-02-28T08:44:50;22.48;;;8.23;;
59388;SDS011;51830;45.202;19.720;2023-02-28T08:47:16;19.65;;;8.20;;
59388;SDS011;51830;45.202;19.720;2023-02-28T08:49:42;24.10;;;9.30;;
59388;SDS011;51830;45.202;19.720;2023-02-28T08:52:08;25.52;;;9.07;;
59388;SDS011;51830;45.202;19.720;2023-02-28T08:54:35;18.90;;;7.28;;
59388;SDS011;51830;45.202;19.720;2023-02-28T08:57:02;19.27;;;7.90;;
59388;SDS011;51830;45.202;19.720;2023-02-28T08:59:28;20.13;;;7.75;;
59388;SDS011;51830;45.202;19.720;2023-02-28T09:01:55;15.88;;;6.82;;
59388;SDS011;51830;45.202;19.720;2023-02-28T09:04:21;15.57;;;5.43;;
59388;SDS011;51830;45.202;19.720;2023-02-28T09:06:47;17.17;;;6.60;;
59388;SDS011;51830;45.202;19.720;2023-02-28T09:09:14;21.67;;;8.32;;
59388;SDS011;51830;45.202;19.720;2023-02-28T09:11:40;20.15;;;7.47;;
59388;SDS011;51830;45.202;19.720;2023-02-28T09:14:07;19.58;;;7.55;;
59388;SDS011;51830;45.202;19.720;2023-02-28T09:16:34;16.27;;;6.53;;
59388;SDS011;51830;45.202;19.720;2023-02-28T09:19:00;19.83;;;6.07;;
59388;SDS011;51830;45.202;19.720;2023-02-28T09:21:27;18.58;;;6.28;;
59388;SDS011;51830;45.202;19.720;2023-02-28T09:23:53;15.40;;;5.95;;
59388;SDS011;51830;45.202;19.720;2023-02-28T09:26:23;15.57;;;5.93;;
59388;SDS011;51830;45.202;19.720;2023-02-28T09:28:50;15.43;;;6.25;;
59388;SDS011;51830;45.202;19.720;2023-02-28T09:31:17;21.05;;;7.68;;
59388;SDS011;51830;45.202;19.720;2023-02-28T09:33:48;17.08;;;6.30;;
59388;SDS011;51830;45.202;19.720;2023-02-28T09:36:14;18.58;;;6.28;;
59388;SDS011;51830;45.202;19.720;2023-02-28T09:38:40;19.83;;;7.10;;
59388;SDS011;51830;45.202;19.720;2023-02-28T09:41:15;20.67;;;7.00;;
59388;SDS011;51830;45.202;19.720;2023-02-28T09:43:43;18.75;;;7.20;;
59388;SDS011;51830;45.202;19.720;2023-02-28T09:48:44;21.03;;;6.77;;
59388;SDS011;51830;45.202;19.720;2023-02-28T09:54:13;14.02;;;4.93;;
59388;SDS011;51830;45.202;19.720;2023-02-28T09:56:44;11.98;;;4.40;;
59388;SDS011;51830;45.202;19.720;2023-02-28T09:59:20;14.30;;;5.15;;
59388;SDS011;51830;45.202;19.720;2023-02-28T10:06:45;15.70;;;4.90;;
59388;SDS011;51830;45.202;19.720;2023-02-28T10:09:19;16.05;;;5.53;;
59388;SDS011;51830;45.202;19.720;2023-02-28T10:11:48;17.08;;;5.15;;
59388;SDS011;51830;45.202;19.720;2023-02-28T10:14:18;16.27;;;5.65;;
59388;SDS011;51830;45.202;19.720;2023-02-28T10:22:19;16.67;;;6.00;;
59388;SDS011;51830;45.202;19.720;2023-02-28T10:24:55;20.42;;;7.88;;
59388;SDS011;51830;45.202;19.720;2023-02-28T10:27:25;17.08;;;5.20;;
59388;SDS011;51830;45.202;19.720;2023-02-28T10:29:57;15.80;;;5.97;;
59388;SDS011;51830;45.202;19.720;2023-02-28T10:32:35;15.90;;;5.13;;
59388;SDS011;51830;45.202;19.720;2023-02-28T10:37:37;17.73;;;6.65;;
59388;SDS011;51830;45.202;19.720;2023-02-28T10:40:04;21.63;;;8.25;;
59388;SDS011;51830;45.202;19.720;2023-02-28T10:42:31;19.33;;;8.23;;
59388;SDS011;51830;45.202;19.720;2023-02-28T10:47:37;19.77;;;6.85;;
59388;SDS011;51830;45.202;19.720;2023-02-28T10:50:23;14.98;;;5.78;;
59388;SDS011;51830;45.202;19.720;2023-02-28T10:52:52;16.45;;;6.28;;
59388;SDS011;51830;45.202;19.720;2023-02-28T10:55:23;16.50;;;5.90;;
59388;SDS011;51830;45.202;19.720;2023-02-28T10:57:53;21.25;;;7.05;;
59388;SDS011;51830;45.202;19.720;2023-02-28T11:00:21;15.43;;;5.70;;
59388;SDS011;51830;45.202;19.720;2023-02-28T11:02:47;20.52;;;7.22;;
59388;SDS011;51830;45.202;19.720;2023-02-28T11:05:33;20.98;;;6.85;;
59388;SDS011;51830;45.202;19.720;2023-02-28T11:10:32;21.15;;;8.32;;
59388;SDS011;51830;45.202;19.720;2023-02-28T11:13:01;18.13;;;6.82;;
59388;SDS011;51830;45.202;19.720;2023-02-28T11:15:34;18.08;;;6.65;;
59388;SDS011;51830;45.202;19.720;2023-02-28T11:20:39;17.42;;;6.65;;
59388;SDS011;51830;45.202;19.720;2023-02-28T11:23:05;21.38;;;8.02;;
59388;SDS011;51830;45.202;19.720;2023-02-28T11:25:38;22.17;;;8.43;;
59388;SDS011;51830;45.202;19.720;2023-02-28T11:28:05;22.40;;;7.28;;
59388;SDS011;51830;45.202;19.720;2023-02-28T11:30:33;30.65;;;9.98;;
59388;SDS011;51830;45.202;19.720;2023-02-28T11:33:00;19.67;;;7.32;;
59388;SDS011;51830;45.202;19.720;2023-02-28T11:35:30;19.40;;;6.45;;
59388;SDS011;51830;45.202;19.720;2023-02-28T11:37:59;19.25;;;7.25;;
59388;SDS011;51830;45.202;19.720;2023-02-28T11:40:38;15.98;;;5.95;;
59388;SDS011;51830;45.202;19.720;2023-02-28T11:46:08;21.75;;;8.07;;
59388;SDS011;51830;45.202;19.720;2023-02-28T11:48:54;20.05;;;7.55;;
59388;SDS011;51830;45.202;19.720;2023-02-28T11:51:27;23.20;;;8.60;;
59388;SDS011;51830;45.202;19.720;2023-02-28T11:56:40;25.90;;;10.43;;
59388;SDS011;51830;45.202;19.720;2023-02-28T12:01:38;20.70;;;9.15;;
59388;SDS011;51830;45.202;19.720;2023-02-28T12:06:48;22.85;;;8.68;;
59388;SDS011;51830;45.202;19.720;2023-02-28T12:11:51;23.95;;;8.90;;
59388;SDS011;51830;45.202;19.720;2023-02-28T12:27:25;20.50;;;9.00;;
59388;SDS011;51830;45.202;19.720;2023-02-28T12:29:57;19.25;;;6.43;;
59388;SDS011;51830;45.202;19.720;2023-02-28T12:32:26;23.02;;;8.43;;
59388;SDS011;51830;45.202;19.720;2023-02-28T12:35:01;25.35;;;10.13;;
59388;SDS011;51830;45.202;19.720;2023-02-28T12:37:30;19.75;;;7.72;;
59388;SDS011;51830;45.202;19.720;2023-02-28T12:40:02;19.20;;;7.47;;
59388;SDS011;51830;45.202;19.720;2023-02-28T12:42:36;20.15;;;7.20;;
59388;SDS011;51830;45.202;19.720;2023-02-28T12:47:32;22.55;;;7.90;;
59388;SDS011;51830;45.202;19.720;2023-02-28T12:49:59;22.60;;;8.88;;
59388;SDS011;51830;45.202;19.720;2023-02-28T12:52:37;21.50;;;7.80;;
59388;SDS011;51830;45.202;19.720;2023-02-28T12:55:08;24.40;;;7.57;;
59388;SDS011;51830;45.202;19.720;2023-02-28T13:00:14;20.73;;;6.55;;
59388;SDS011;51830;45.202;19.720;2023-02-28T13:05:37;20.15;;;7.20;;
59388;SDS011;51830;45.202;19.720;2023-02-28T13:08:21;22.05;;;7.10;;
59388;SDS011;51830;45.202;19.720;2023-02-28T13:10:50;23.45;;;6.38;;
59388;SDS011;51830;45.202;19.720;2023-02-28T13:13:20;21.35;;;6.80;;
59388;SDS011;51830;45.202;19.720;2023-02-28T13:16:00;20.63;;;7.65;;
59388;SDS011;51830;45.202;19.720;2023-02-28T13:21:01;21.33;;;7.07;;
59388;SDS011;51830;45.202;19.720;2023-02-28T13:26:16;17.48;;;7.15;;
59388;SDS011;51830;45.202;19.720;2023-02-28T13:31:29;21.15;;;6.88;;
59388;SDS011;51830;45.202;19.720;2023-02-28T13:36:29;18.33;;;7.88;;
59388;SDS011;51830;45.202;19.720;2023-02-28T13:39:00;21.00;;;6.72;;
59388;SDS011;51830;45.202;19.720;2023-02-28T13:46:34;17.42;;;5.88;;
59388;SDS011;51830;45.202;19.720;2023-02-28T13:51:46;19.98;;;7.50;;
59388;SDS011;51830;45.202;19.720;2023-02-28T13:57:02;18.52;;;5.75;;
59388;SDS011;51830;45.202;19.720;2023-02-28T14:07:28;16.90;;;6.43;;
59388;SDS011;51830;45.202;19.720;2023-02-28T14:10:03;17.92;;;7.00;;
59388;SDS011;51830;45.202;19.720;2023-02-28T14:15:26;19.38;;;7.03;;
59388;SDS011;51830;45.202;19.720;2023-02-28T14:17:54;16.85;;;5.93;;
59388;SDS011;51830;45.202;19.720;2023-02-28T14:20:21;16.90;;;6.38;;
59388;SDS011;51830;45.202;19.720;2023-02-28T14:25:32;23.25;;;8.23;;
59388;SDS011;51830;45.202;19.720;2023-02-28T14:30:57;20.98;;;8.20;;
59388;SDS011;51830;45.202;19.720;2023-02-28T14:38:49;24.63;;;7.75;;
59388;SDS011;51830;45.202;19.720;2023-02-28T14:41:39;21.73;;;7.20;;
59388;SDS011;51830;45.202;19.720;2023-02-28T14:46:43;30.63;;;13.68;;
59388;SDS011;51830;45.202;19.720;2023-02-28T14:49:12;25.35;;;12.13;;
59388;SDS011;51830;45.202;19.720;2023-02-28T14:51:39;21.00;;;7.57;;
59388;SDS011;51830;45.202;19.720;2023-02-28T14:54:05;24.33;;;9.77;;
59388;SDS011;51830;45.202;19.720;2023-02-28T14:56:35;23.35;;;9.48;;
59388;SDS011;51830;45.202;19.720;2023-02-28T14:59:03;21.30;;;7.43;;
59388;SDS011;51830;45.202;19.720;2023-02-28T15:01:30;17.65;;;5.63;;
59388;SDS011;51830;45.202;19.720;2023-02-28T15:04:05;17.85;;;6.18;;
59388;SDS011;51830;45.202;19.720;2023-02-28T15:06:31;20.40;;;6.82;;
59388;SDS011;51830;45.202;19.720;2023-02-28T15:09:07;21.77;;;8.48;;
59388;SDS011;51830;45.202;19.720;2023-02-28T15:11:34;19.75;;;6.45;;
59388;SDS011;51830;45.202;19.720;2023-02-28T15:14:00;16.52;;;5.88;;
59388;SDS011;51830;45.202;19.720;2023-02-28T15:16:37;17.15;;;6.72;;
59388;SDS011;51830;45.202;19.720;2023-02-28T15:19:06;20.65;;;6.88;;
59388;SDS011;51830;45.202;19.720;2023-02-28T15:21:34;20.98;;;8.02;;
59388;SDS011;51830;45.202;19.720;2023-02-28T15:26:32;23.85;;;9.05;;
59388;SDS011;51830;45.202;19.720;2023-02-28T15:29:06;19.15;;;7.20;;
59388;SDS011;51830;45.202;19.720;2023-02-28T15:31:35;14.55;;;5.75;;
59388;SDS011;51830;45.202;19.720;2023-02-28T15:34:05;19.75;;;6.43;;
59388;SDS011;51830;45.202;19.720;2023-02-28T15:36:33;21.75;;;6.40;;
59388;SDS011;51830;45.202;19.720;2023-02-28T15:39:03;17.02;;;5.82;;
59388;SDS011;51830;45.202;19.720;2023-02-28T15:41:38;19.00;;;6.68;;
59388;SDS011;51830;45.202;19.720;2023-02-28T15:44:18;18.05;;;7.25;;
59388;SDS011;51830;45.202;19.720;2023-02-28T15:47:01;18.55;;;6.53;;
59388;SDS011;51830;45.202;19.720;2023-02-28T15:49:28;19.17;;;6.55;;
59388;SDS011;51830;45.202;19.720;2023-02-28T15:51:56;23.83;;;6.22;;
59388;SDS011;51830;45.202;19.720;2023-02-28T15:54:25;17.38;;;5.78;;
59388;SDS011;51830;45.202;19.720;2023-02-28T15:56:54;19.48;;;7.40;;
59388;SDS011;51830;45.202;19.720;2023-02-28T15:59:21;19.38;;;6.32;;
59388;SDS011;51830;45.202;19.720;2023-02-28T16:02:01;18.58;;;7.95;;
59388;SDS011;51830;45.202;19.720;2023-02-28T16:04:28;21.70;;;8.68;;
59388;SDS011;51830;45.202;19.720;2023-02-28T16:09:25;17.98;;;6.03;;
59388;SDS011;51830;45.202;19.720;2023-02-28T16:11:54;17.70;;;6.85;;
59388;SDS011;51830;45.202;19.720;2023-02-28T16:14:23;14.13;;;5.47;;
59388;SDS011;51830;45.202;19.720;2023-02-28T16:16:54;13.10;;;4.72;;
59388;SDS011;51830;45.202;19.720;2023-02-28T16:19:21;15.20;;;6.25;;
59388;SDS011;51830;45.202;19.720;2023-02-28T16:21:48;15.10;;;5.07;;
59388;SDS011;51830;45.202;19.720;2023-02-28T16:24:17;21.98;;;5.82;;
59388;SDS011;51830;45.202;19.720;2023-02-28T16:26:45;19.00;;;6.47;;
59388;SDS011;51830;45.202;19.720;2023-02-28T16:29:13;22.88;;;8.30;;
59388;SDS011;51830;45.202;19.720;2023-02-28T16:31:40;19.60;;;7.63;;
59388;SDS011;51830;45.202;19.720;2023-02-28T16:34:06;23.48;;;8.07;;
59388;SDS011;51830;45.202;19.720;2023-02-28T16:36:33;19.63;;;7.18;;
59388;SDS011;51830;45.202;19.720;2023-02-28T16:38:59;22.25;;;8.95;;
59388;SDS011;51830;45.202;19.720;2023-02-28T16:41:27;21.05;;;8.25;;
59388;SDS011;51830;45.202;19.720;2023-02-28T16:43:54;19.67;;;7.00;;
59388;SDS011;51830;45.202;19.720;2023-02-28T16:46:24;18.05;;;7.55;;
59388;SDS011;51830;45.202;19.720;2023-02-28T16:48:51;24.42;;;8.57;;
59388;SDS011;51830;45.202;19.720;2023-02-28T16:51:17;18.27;;;7.65;;
59388;SDS011;51830;45.202;19.720;2023-02-28T16:53:44;24.70;;;7.70;;
59388;SDS011;51830;45.202;19.720;2023-02-28T16:56:20;22.58;;;8.25;;
59388;SDS011;51830;45.202;19.720;2023-02-28T16:58:47;23.65;;;7.13;;
59388;SDS011;51830;45.202;19.720;2023-02-28T17:01:14;20.48;;;8.25;;
59388;SDS011;51830;45.202;19.720;2023-02-28T17:03:40;27.33;;;9.43;;